Chicago, Illinois
Traffic Map
Current Weather Conditions
Chicago, Illinois
Broken Clouds
Broken Clouds

Feels Like: 3°
Wind Chill: Ceiling: 25000
Heat Index: Visibility: 10mi
Dew Point: Wind: 5mph
Humidity: 79% Direction: 200° (SSW)
Pressure: 30.15in Gusts: 0mph
Raw Report DataKMDW 301353Z 20004KT 10SM FEW170 BKN250 05/02 A3015 RMK AO2 SLP214 T00500017
Traffic Incident Summary
Active as of:
Severity:
Category:
InformationThere was an issue retrieving the traffic information for this location. Please try a different location or try again shortly.
Advertisements
Track Severe Weather on mobile